createdAt,value
2023-03-11T00:00:13.564Z,10.50
2023-03-11T00:02:41.575Z,10.49
2023-03-11T00:05:10.211Z,10.48
2023-03-11T00:07:39.958Z,10.49
2023-03-11T00:10:11.503Z,10.44
2023-03-11T00:12:39.497Z,10.44
2023-03-11T00:15:08.086Z,10.43
2023-03-11T00:17:36.151Z,10.42
2023-03-11T00:20:05.239Z,10.41
2023-03-11T00:22:33.298Z,10.43
2023-03-11T00:25:01.178Z,10.39
2023-03-11T00:27:30.436Z,10.34
2023-03-11T00:29:58.508Z,10.32
2023-03-11T00:32:27.200Z,10.29
2023-03-11T00:34:55.113Z,10.27
2023-03-11T00:37:23.275Z,10.26
2023-03-11T00:39:51.228Z,10.27
2023-03-11T00:42:19.082Z,10.28
2023-03-11T00:44:48.375Z,10.29
2023-03-11T00:47:16.268Z,10.30
2023-03-11T00:49:44.556Z,10.30
2023-03-11T00:52:12.495Z,10.30
2023-03-11T00:54:40.565Z,10.31
2023-03-11T00:57:08.499Z,10.34
2023-03-11T00:59:36.588Z,10.34
2023-03-11T01:02:06.017Z,10.34
2023-03-11T01:04:34.205Z,10.35
2023-03-11T01:07:02.142Z,10.33
2023-03-11T01:09:31.612Z,10.33
2023-03-11T01:12:00.015Z,10.34
2023-03-11T01:14:28.052Z,10.33
2023-03-11T01:16:56.936Z,10.33
2023-03-11T01:19:26.192Z,10.35
2023-03-11T01:21:55.367Z,10.36
2023-03-11T01:24:23.278Z,10.36
2023-03-11T01:26:51.182Z,10.34
2023-03-11T01:29:19.246Z,10.34
2023-03-11T01:31:47.103Z,10.33
2023-03-11T01:34:15.001Z,10.33
2023-03-11T01:36:44.269Z,10.35
2023-03-11T01:39:12.482Z,10.32
2023-03-11T01:41:40.435Z,10.31
2023-03-11T01:44:08.407Z,10.27
2023-03-11T01:46:41.259Z,10.24
2023-03-11T01:49:11.246Z,10.21
2023-03-11T01:51:40.570Z,10.16
2023-03-11T01:54:12.897Z,10.15
2023-03-11T01:56:41.818Z,10.11
2023-03-11T01:59:10.389Z,10.05
2023-03-11T02:01:39.862Z,10.00
2023-03-11T02:04:07.843Z,9.99
2023-03-11T02:06:35.761Z,9.98
2023-03-11T02:09:03.849Z,9.98
2023-03-11T02:11:33.845Z,9.99
2023-03-11T02:14:04.772Z,9.99
2023-03-11T02:16:32.728Z,10.00
2023-03-11T02:19:01.437Z,9.99
2023-03-11T02:21:30.536Z,9.98
2023-03-11T02:24:05.847Z,9.95
2023-03-11T02:26:37.163Z,9.95
2023-03-11T02:29:07.031Z,9.92
2023-03-11T02:31:35.006Z,9.92
2023-03-11T02:34:03.245Z,9.90
2023-03-11T02:36:36.198Z,9.93
2023-03-11T02:39:05.530Z,9.94
2023-03-11T02:41:33.904Z,9.94
2023-03-11T02:44:01.835Z,9.92
2023-03-11T02:46:32.471Z,9.89
2023-03-11T02:49:00.822Z,9.90
2023-03-11T02:51:28.743Z,9.88
2023-03-11T02:53:58.901Z,9.87
2023-03-11T02:56:29.058Z,9.89
2023-03-11T02:58:56.980Z,9.87
2023-03-11T03:01:24.938Z,9.90
2023-03-11T03:03:54.390Z,9.92
2023-03-11T03:06:22.471Z,9.93
2023-03-11T03:08:52.518Z,9.90
2023-03-11T03:11:20.702Z,9.92
2023-03-11T03:13:49.207Z,9.93
2023-03-11T03:16:17.292Z,9.93
2023-03-11T03:18:45.244Z,9.93
2023-03-11T03:21:14.619Z,9.91
2023-03-11T03:23:42.687Z,9.91
2023-03-11T03:26:13.091Z,9.92
2023-03-11T03:28:43.061Z,9.89
2023-03-11T03:31:11.421Z,9.89
2023-03-11T03:33:41.554Z,9.89
2023-03-11T03:36:11.146Z,9.91
2023-03-11T03:38:46.861Z,9.87
2023-03-11T03:41:15.992Z,9.82
2023-03-11T03:43:44.227Z,9.80
2023-03-11T03:46:12.873Z,9.79
2023-03-11T03:48:44.758Z,9.79
2023-03-11T03:51:14.119Z,9.76
2023-03-11T03:53:50.842Z,9.73
2023-03-11T03:56:19.260Z,9.74
2023-03-11T03:58:47.224Z,9.70
2023-03-11T04:01:15.454Z,9.65
2023-03-11T04:03:43.856Z,9.61
2023-03-11T04:06:17.413Z,9.57
2023-03-11T04:08:45.861Z,9.61
2023-03-11T04:11:15.839Z,9.58
2023-03-11T04:13:44.795Z,9.59
2023-03-11T04:16:15.859Z,9.62
2023-03-11T04:18:44.179Z,9.63
2023-03-11T04:21:12.336Z,9.59
2023-03-11T04:23:40.601Z,9.58
2023-03-11T04:26:09.157Z,9.56
2023-03-11T04:28:39.962Z,9.55
2023-03-11T04:31:08.431Z,9.54
2023-03-11T04:33:36.995Z,9.52
2023-03-11T04:36:07.594Z,9.52
2023-03-11T04:38:36.798Z,9.53
2023-03-11T04:41:05.424Z,9.49
2023-03-11T04:43:33.910Z,9.49
2023-03-11T04:46:03.363Z,9.47
2023-03-11T04:48:31.328Z,9.47
2023-03-11T04:50:59.587Z,9.49
2023-03-11T04:53:28.548Z,9.48
2023-03-11T04:55:57.201Z,9.51
2023-03-11T04:58:25.166Z,9.51
2023-03-11T05:00:53.470Z,9.52
2023-03-11T05:03:23.913Z,9.52
2023-03-11T05:05:54.228Z,9.56
2023-03-11T05:08:22.493Z,9.58
2023-03-11T05:10:50.468Z,9.60
2023-03-11T05:13:18.390Z,9.63
2023-03-11T05:15:46.344Z,9.65
2023-03-11T05:18:14.492Z,9.67
2023-03-11T05:20:44.187Z,9.68
2023-03-11T05:23:13.419Z,9.68
2023-03-11T05:25:42.228Z,9.68
2023-03-11T05:28:10.971Z,9.65
2023-03-11T05:30:44.858Z,9.65
2023-03-11T05:33:13.039Z,9.64
2023-03-11T05:35:41.129Z,9.61
2023-03-11T05:38:41.327Z,9.60
2023-03-11T05:41:09.632Z,9.62
2023-03-11T05:43:38.146Z,9.60
2023-03-11T05:46:06.200Z,9.58
2023-03-11T05:48:36.329Z,9.53
2023-03-11T05:51:07.962Z,9.55
2023-03-11T05:53:37.722Z,9.59
2023-03-11T05:56:06.476Z,9.62
2023-03-11T05:58:34.669Z,9.68
2023-03-11T06:01:02.879Z,9.69
2023-03-11T06:03:31.081Z,9.69
2023-03-11T06:05:59.237Z,9.73
2023-03-11T06:08:27.283Z,9.76
2023-03-11T06:11:02.212Z,9.82
2023-03-11T06:13:30.569Z,9.83
2023-03-11T06:15:58.543Z,9.80
2023-03-11T06:18:26.927Z,9.79
2023-03-11T06:20:55.054Z,9.75
2023-03-11T06:23:23.036Z,9.75
2023-03-11T06:25:57.877Z,9.74
2023-03-11T06:28:26.722Z,9.72
2023-03-11T06:30:56.839Z,9.71
2023-03-11T06:33:25.205Z,9.69
2023-03-11T06:35:59.328Z,9.69
2023-03-11T06:38:27.296Z,9.66
2023-03-11T06:40:55.307Z,9.65
2023-03-11T06:43:25.030Z,9.63
2023-03-11T06:45:54.402Z,9.64
2023-03-11T06:48:22.523Z,9.63
2023-03-11T06:50:57.378Z,9.64
2023-03-11T06:53:26.280Z,9.62
2023-03-11T06:56:01.797Z,9.64
2023-03-11T06:58:33.531Z,9.64
2023-03-11T07:01:02.343Z,9.63
2023-03-11T07:03:30.881Z,9.68
2023-03-11T07:05:59.833Z,9.71
2023-03-11T07:08:27.785Z,9.72
2023-03-11T07:11:03.393Z,9.72
2023-03-11T07:13:33.218Z,9.69
2023-03-11T07:16:02.399Z,9.67
2023-03-11T07:18:30.427Z,9.66
2023-03-11T07:20:58.408Z,9.66
2023-03-11T07:23:26.334Z,9.67
2023-03-11T07:25:55.855Z,9.66
2023-03-11T07:28:24.105Z,9.67
2023-03-11T07:30:53.399Z,9.70
2023-03-11T07:33:21.598Z,9.73
2023-03-11T07:35:50.095Z,9.75
2023-03-11T07:38:18.109Z,9.78
2023-03-11T07:40:46.608Z,9.73
2023-03-11T07:43:15.085Z,9.79
2023-03-11T07:45:43.128Z,9.77
2023-03-11T07:48:12.575Z,9.83
2023-03-11T07:50:40.476Z,9.86
2023-03-11T07:53:08.549Z,9.90
2023-03-11T07:55:36.790Z,9.90
2023-03-11T07:58:04.688Z,9.90
2023-03-11T08:00:32.672Z,9.90
2023-03-11T08:03:00.798Z,9.90
2023-03-11T08:05:30.201Z,9.93
2023-03-11T08:07:58.164Z,9.99
2023-03-11T08:10:26.081Z,10.04
2023-03-11T08:12:54.067Z,10.11
2023-03-11T08:15:22.063Z,10.15
2023-03-11T08:17:50.071Z,10.21
2023-03-11T08:20:18.257Z,10.23
2023-03-11T08:22:57.615Z,10.26
2023-03-11T08:25:26.213Z,10.31
2023-03-11T08:27:54.098Z,10.35
2023-03-11T08:30:22.291Z,10.38
2023-03-11T08:32:50.318Z,10.37
2023-03-11T08:35:18.554Z,10.41
2023-03-11T08:37:47.823Z,10.44
2023-03-11T08:40:15.810Z,10.42
2023-03-11T08:42:44.000Z,10.46
2023-03-11T08:45:12.733Z,10.48
2023-03-11T08:47:40.839Z,10.50
2023-03-11T08:50:10.438Z,10.54
2023-03-11T08:52:38.444Z,10.60
2023-03-11T08:55:11.233Z,10.67
2023-03-11T08:57:39.292Z,10.69
2023-03-11T09:00:10.662Z,10.72
2023-03-11T09:02:41.619Z,10.75
2023-03-11T09:05:10.550Z,10.77
2023-03-11T09:07:38.473Z,10.80
2023-03-11T09:10:08.456Z,10.84
2023-03-11T09:12:36.469Z,10.87
2023-03-11T09:15:05.807Z,10.91
2023-03-11T09:17:33.835Z,10.91
2023-03-11T09:20:02.015Z,10.94
2023-03-11T09:22:30.058Z,10.95
2023-03-11T09:24:58.923Z,10.96
2023-03-11T09:27:28.326Z,11.00
2023-03-11T09:29:56.304Z,11.09
2023-03-11T09:32:24.275Z,11.11
2023-03-11T09:34:52.224Z,11.14
2023-03-11T09:37:20.133Z,11.22
2023-03-11T09:39:48.128Z,11.27
2023-03-11T09:42:20.023Z,11.29
2023-03-11T09:44:53.317Z,11.31
2023-03-11T09:47:38.611Z,11.38
2023-03-11T09:50:18.227Z,11.37
2023-03-11T09:52:48.122Z,11.50
2023-03-11T09:55:33.906Z,11.61
2023-03-11T09:58:03.552Z,11.65
2023-03-11T10:00:32.894Z,11.77
2023-03-11T10:03:01.527Z,11.87
2023-03-11T10:05:30.179Z,11.95
2023-03-11T10:08:00.626Z,11.96
2023-03-11T10:10:30.003Z,12.01
2023-03-11T10:13:00.899Z,12.05
2023-03-11T10:15:39.410Z,12.03
2023-03-11T10:18:24.845Z,12.07
2023-03-11T10:20:55.719Z,12.07
2023-03-11T10:23:27.332Z,12.03
2023-03-11T10:26:02.230Z,12.02
2023-03-11T10:28:33.416Z,11.96
2023-03-11T10:31:05.495Z,12.01
2023-03-11T10:33:35.284Z,12.04
2023-03-11T10:36:06.166Z,12.05
2023-03-11T10:38:35.254Z,12.02
2023-03-11T10:41:06.288Z,12.05
2023-03-11T10:43:36.442Z,12.07
2023-03-11T10:46:08.009Z,12.07
2023-03-11T10:48:36.044Z,12.17
2023-03-11T10:51:05.196Z,12.20
2023-03-11T10:53:33.196Z,12.24
2023-03-11T10:56:01.123Z,12.29
2023-03-11T10:58:30.019Z,12.29
2023-03-11T11:01:06.942Z,12.33
2023-03-11T11:03:34.903Z,12.39
2023-03-11T11:06:04.576Z,12.47
2023-03-11T11:08:32.581Z,12.46
2023-03-11T11:11:01.139Z,12.47
2023-03-11T11:13:30.248Z,12.48
2023-03-11T11:16:00.203Z,12.51
2023-03-11T11:18:30.842Z,12.52
2023-03-11T11:21:04.291Z,12.52
2023-03-11T11:23:34.403Z,12.57
2023-03-11T11:26:04.711Z,12.63
2023-03-11T11:28:33.623Z,12.64
2023-03-11T11:31:03.691Z,12.69
2023-03-11T11:33:33.837Z,12.72
2023-03-11T11:36:03.389Z,12.75
2023-03-11T11:38:32.228Z,12.73
2023-03-11T11:41:02.510Z,12.80
2023-03-11T11:43:49.706Z,12.89
2023-03-11T11:46:27.083Z,12.98
2023-03-11T11:49:05.363Z,13.02
2023-03-11T11:51:35.295Z,13.10
2023-03-11T11:54:07.193Z,13.14
2023-03-11T11:56:35.122Z,13.15
2023-03-11T11:59:03.078Z,13.15
2023-03-11T12:01:36.357Z,13.13
2023-03-11T12:04:21.973Z,13.20
2023-03-11T12:06:52.057Z,13.32
2023-03-11T12:09:24.439Z,13.52
2023-03-11T12:11:53.650Z,13.58
2023-03-11T12:14:22.753Z,13.53
2023-03-11T12:16:53.834Z,13.45
2023-03-11T12:19:29.783Z,13.45
2023-03-11T12:22:32.050Z,13.47
2023-03-11T12:25:14.926Z,13.48
2023-03-11T12:27:44.460Z,13.47
2023-03-11T12:30:14.598Z,13.46
2023-03-11T12:32:44.481Z,13.49
2023-03-11T12:35:21.445Z,13.54
2023-03-11T12:37:56.886Z,13.62
2023-03-11T12:41:00.173Z,13.64
2023-03-11T12:43:49.992Z,13.69
2023-03-11T12:46:18.881Z,13.75
2023-03-11T12:48:47.125Z,13.72
2023-03-11T12:51:41.483Z,13.82
2023-03-11T12:54:23.110Z,13.78
2023-03-11T12:56:52.714Z,13.86
2023-03-11T12:59:45.374Z,13.84
2023-03-11T13:02:20.747Z,13.76
2023-03-11T13:04:52.626Z,13.65
2023-03-11T13:07:38.156Z,13.60
2023-03-11T13:10:21.434Z,13.52
2023-03-11T13:12:49.616Z,13.42
2023-03-11T13:15:43.092Z,13.37
2023-03-11T13:18:19.261Z,13.29
2023-03-11T13:20:56.141Z,13.28
2023-03-11T13:23:30.461Z,13.25
2023-03-11T13:26:14.894Z,13.18
2023-03-11T13:29:01.813Z,13.17
2023-03-11T13:31:39.214Z,13.15
2023-03-11T13:34:16.340Z,13.09
2023-03-11T13:36:55.575Z,13.04
2023-03-11T13:39:32.800Z,13.01
2023-03-11T13:42:00.704Z,12.96
2023-03-11T13:44:30.460Z,12.94
2023-03-11T13:47:01.810Z,12.90
2023-03-11T13:49:34.429Z,12.89
2023-03-11T13:52:02.895Z,12.86
2023-03-11T13:54:36.014Z,12.79
2023-03-11T13:57:04.086Z,12.75
2023-03-11T13:59:33.692Z,12.75
2023-03-11T14:02:02.978Z,12.69
2023-03-11T14:04:31.919Z,12.73
2023-03-11T14:06:59.973Z,12.74
2023-03-11T14:09:28.893Z,12.74
2023-03-11T14:12:04.818Z,12.67
2023-03-11T14:14:38.398Z,12.73
2023-03-11T14:17:06.780Z,12.73
2023-03-11T14:19:34.673Z,12.71
2023-03-11T14:22:02.567Z,12.69
2023-03-11T14:24:30.862Z,12.69
2023-03-11T14:27:01.238Z,12.71
2023-03-11T14:29:32.372Z,12.66
2023-03-11T14:32:00.475Z,12.72
2023-03-11T14:34:30.034Z,12.73
2023-03-11T14:36:59.026Z,12.76
2023-03-11T14:39:29.143Z,12.74
2023-03-11T14:42:01.122Z,12.76
2023-03-11T14:44:29.281Z,12.70
2023-03-11T14:46:59.903Z,12.78
2023-03-11T14:49:27.958Z,12.76
2023-03-11T14:51:58.040Z,12.76
2023-03-11T14:54:26.866Z,12.73
2023-03-11T14:56:57.362Z,12.72
2023-03-11T14:59:27.832Z,12.80
2023-03-11T15:01:56.393Z,12.80
2023-03-11T15:04:27.981Z,12.73
2023-03-11T15:06:55.932Z,12.74
2023-03-11T15:09:24.970Z,12.74
2023-03-11T15:11:55.251Z,12.75
2023-03-11T15:14:24.374Z,12.76
2023-03-11T15:16:53.854Z,12.77
2023-03-11T15:19:31.194Z,12.82
2023-03-11T15:22:06.794Z,12.82
2023-03-11T15:24:34.953Z,12.84
2023-03-11T15:27:03.724Z,12.85
2023-03-11T15:29:31.957Z,12.87
2023-03-11T15:32:01.459Z,12.87
2023-03-11T15:34:30.971Z,12.88
2023-03-11T15:37:21.023Z,12.84
2023-03-11T15:39:51.251Z,12.82
2023-03-11T15:42:21.235Z,12.81
2023-03-11T15:45:14.573Z,12.76
2023-03-11T15:47:43.958Z,12.79
2023-03-11T15:50:24.045Z,12.80
2023-03-11T15:52:53.100Z,12.81
2023-03-11T15:55:21.081Z,12.80
2023-03-11T15:57:49.092Z,12.80
2023-03-11T16:00:19.394Z,12.79
2023-03-11T16:02:48.845Z,12.81
2023-03-11T16:05:17.640Z,12.82
2023-03-11T16:07:46.721Z,12.83
2023-03-11T16:10:15.230Z,12.82
2023-03-11T16:12:43.556Z,12.70
2023-03-11T16:15:22.260Z,12.57
2023-03-11T16:17:52.217Z,12.48
2023-03-11T16:20:21.846Z,12.49
2023-03-11T16:22:50.243Z,12.51
2023-03-11T16:25:23.150Z,12.55
2023-03-11T16:27:52.120Z,12.59
2023-03-11T16:30:20.344Z,12.64
2023-03-11T16:32:48.281Z,12.70
2023-03-11T16:35:17.799Z,12.68
2023-03-11T16:37:45.827Z,12.71
2023-03-11T16:40:14.590Z,12.74
2023-03-11T16:42:43.619Z,12.74
2023-03-11T16:45:12.101Z,12.78
2023-03-11T16:47:40.078Z,12.76
2023-03-11T16:50:09.046Z,12.78
2023-03-11T16:52:38.378Z,12.81
2023-03-11T16:55:07.201Z,12.81
2023-03-11T16:57:35.132Z,12.79
2023-03-11T17:00:05.529Z,12.78
2023-03-11T17:02:33.621Z,12.88
2023-03-11T17:05:01.545Z,13.05
2023-03-11T17:07:29.558Z,13.18
2023-03-11T17:09:59.050Z,13.29
2023-03-11T17:12:27.118Z,13.38
2023-03-11T17:14:55.342Z,13.52
2023-03-11T17:17:23.517Z,13.61
2023-03-11T17:19:51.479Z,13.71
2023-03-11T17:22:19.461Z,13.73
2023-03-11T17:24:47.381Z,13.85
2023-03-11T17:27:16.611Z,14.00
2023-03-11T17:29:44.562Z,14.12
2023-03-11T17:32:16.785Z,14.21
2023-03-11T17:34:45.145Z,14.36
2023-03-11T17:37:14.209Z,14.39
2023-03-11T17:39:42.275Z,14.48
2023-03-11T17:42:10.347Z,14.55
2023-03-11T17:44:51.020Z,14.54
2023-03-11T17:47:20.644Z,14.47
2023-03-11T17:49:48.780Z,14.56
2023-03-11T17:52:17.002Z,14.56
2023-03-11T17:54:44.919Z,14.60
2023-03-11T17:57:12.862Z,14.56
2023-03-11T17:59:42.168Z,14.56
2023-03-11T18:02:13.462Z,14.58
2023-03-11T18:04:43.415Z,14.55
2023-03-11T18:07:11.377Z,14.58
2023-03-11T18:09:39.445Z,14.54
2023-03-11T18:12:07.706Z,14.54
2023-03-11T18:14:35.636Z,14.53
2023-03-11T18:17:05.193Z,14.51
2023-03-11T18:19:33.097Z,14.61
2023-03-11T18:22:01.037Z,14.65
2023-03-11T18:24:28.936Z,14.67
2023-03-11T18:26:56.854Z,14.69
2023-03-11T18:29:24.822Z,14.68
2023-03-11T18:31:53.871Z,14.68
2023-03-11T18:34:23.267Z,14.53
2023-03-11T18:36:51.214Z,14.61
2023-03-11T18:39:20.754Z,14.59
2023-03-11T18:41:48.722Z,14.64
2023-03-11T18:44:16.652Z,14.71
2023-03-11T18:46:44.561Z,14.68
2023-03-11T18:49:13.106Z,14.63
2023-03-11T18:51:42.386Z,14.72
2023-03-11T18:54:11.316Z,14.76
2023-03-11T18:56:39.286Z,14.77
2023-03-11T18:59:08.602Z,14.71
2023-03-11T19:01:36.796Z,14.60
2023-03-11T19:04:04.780Z,14.67
2023-03-11T19:06:32.861Z,14.65
2023-03-11T19:09:02.226Z,14.60
2023-03-11T19:11:30.278Z,14.64
2023-03-11T19:13:58.206Z,14.66
2023-03-11T19:16:26.769Z,14.60
2023-03-11T19:18:55.198Z,14.62
2023-03-11T19:21:23.246Z,14.73
2023-03-11T19:23:55.274Z,14.72
2023-03-11T19:26:41.501Z,14.65
2023-03-11T19:29:12.116Z,14.66
2023-03-11T19:31:40.091Z,14.56
2023-03-11T19:34:08.127Z,14.56
2023-03-11T19:36:36.125Z,14.60
2023-03-11T19:39:04.247Z,14.70
2023-03-11T19:41:33.668Z,14.65
2023-03-11T19:44:04.111Z,14.69
2023-03-11T19:46:34.809Z,14.59
2023-03-11T19:49:03.170Z,14.56
2023-03-11T19:51:46.322Z,14.65
2023-03-11T19:54:17.147Z,14.60
2023-03-11T19:56:46.549Z,14.61
2023-03-11T19:59:14.602Z,14.64
2023-03-11T20:01:43.286Z,14.59
2023-03-11T20:04:11.546Z,14.56
2023-03-11T20:06:39.667Z,14.60
2023-03-11T20:09:07.933Z,14.62
2023-03-11T20:11:39.658Z,14.57
2023-03-11T20:14:09.331Z,14.61
2023-03-11T20:16:37.481Z,14.62
2023-03-11T20:19:05.497Z,14.62
2023-03-11T20:21:38.887Z,14.48
2023-03-11T20:24:07.250Z,14.58
2023-03-11T20:26:35.503Z,14.49
2023-03-11T20:29:03.461Z,14.47
2023-03-11T20:31:33.144Z,14.37
2023-03-11T20:34:01.327Z,14.32
2023-03-11T20:36:33.042Z,14.37
2023-03-11T20:39:01.209Z,14.36
2023-03-11T20:41:29.401Z,14.27
2023-03-11T20:43:57.939Z,14.18
2023-03-11T20:46:25.960Z,14.11
2023-03-11T20:48:55.436Z,14.18
2023-03-11T20:51:25.067Z,14.22
2023-03-11T20:53:53.057Z,14.21
2023-03-11T20:56:22.106Z,14.21
2023-03-11T20:58:51.066Z,14.19
2023-03-11T21:01:20.294Z,14.26
2023-03-11T21:03:48.907Z,14.31
2023-03-11T21:06:19.443Z,14.34
2023-03-11T21:08:47.632Z,14.44
2023-03-11T21:11:16.314Z,14.40
2023-03-11T21:13:44.519Z,14.44
2023-03-11T21:16:12.645Z,14.41
2023-03-11T21:18:41.361Z,14.46
2023-03-11T21:21:11.653Z,14.63
2023-03-11T21:23:41.154Z,14.61
2023-03-11T21:26:09.154Z,14.54
2023-03-11T21:28:38.895Z,14.58
2023-03-11T21:31:10.895Z,14.54
2023-03-11T21:33:39.270Z,14.51
2023-03-11T21:36:08.278Z,14.53
2023-03-11T21:38:36.303Z,14.59
2023-03-11T21:41:09.725Z,14.57
2023-03-11T21:43:37.917Z,14.44
2023-03-11T21:46:06.233Z,14.39
2023-03-11T21:48:34.284Z,14.47
2023-03-11T21:51:02.235Z,14.45
2023-03-11T21:53:30.226Z,14.46
2023-03-11T21:55:59.358Z,14.43
2023-03-11T21:58:28.664Z,14.48
2023-03-11T22:00:57.040Z,14.55
2023-03-11T22:03:25.160Z,14.53
2023-03-11T22:05:57.359Z,14.55
2023-03-11T22:08:25.446Z,14.60
2023-03-11T22:10:53.563Z,14.53
2023-03-11T22:13:21.753Z,14.53
2023-03-11T22:15:51.134Z,14.58
2023-03-11T22:18:19.295Z,14.52
2023-03-11T22:20:47.254Z,14.56
2023-03-11T22:23:15.308Z,14.64
2023-03-11T22:25:43.414Z,14.64
2023-03-11T22:28:12.976Z,14.56
2023-03-11T22:30:41.038Z,14.63
2023-03-11T22:33:10.357Z,14.64
2023-03-11T22:35:38.302Z,14.69
2023-03-11T22:38:06.250Z,14.61
2023-03-11T22:40:34.980Z,14.62
2023-03-11T22:43:02.890Z,14.61
2023-03-11T22:45:30.833Z,14.52
2023-03-11T22:47:58.784Z,14.60
2023-03-11T22:50:28.190Z,14.65
2023-03-11T22:52:56.079Z,14.67
2023-03-11T22:55:24.053Z,14.72
2023-03-11T22:57:52.025Z,14.63
2023-03-11T23:00:21.137Z,14.59
2023-03-11T23:02:49.803Z,14.59
2023-03-11T23:05:18.021Z,14.65
2023-03-11T23:07:47.350Z,14.65
2023-03-11T23:10:15.557Z,14.59
2023-03-11T23:12:43.478Z,14.64
2023-03-11T23:15:13.201Z,14.67
2023-03-11T23:17:41.164Z,14.56
2023-03-11T23:20:11.142Z,14.47
2023-03-11T23:22:39.244Z,14.53
2023-03-11T23:25:10.102Z,14.48
2023-03-11T23:27:38.008Z,14.54
2023-03-11T23:30:07.148Z,14.45
2023-03-11T23:32:35.193Z,14.44
2023-03-11T23:35:03.861Z,14.54
2023-03-11T23:37:31.786Z,14.56
2023-03-11T23:39:59.957Z,14.49
2023-03-11T23:42:29.262Z,14.40
2023-03-11T23:44:57.482Z,14.49
2023-03-11T23:47:25.644Z,14.44
2023-03-11T23:49:53.515Z,14.48
2023-03-11T23:52:21.503Z,14.51
2023-03-11T23:54:49.426Z,14.51
2023-03-11T23:57:17.489Z,14.44
2023-03-11T23:59:46.812Z,14.42
